메인 페이지
METAR-TAF:

METAR-TAF

공항 :

자그레브 국제공항

자그레브, 크로아티아

위도: 45-44N, 경도: 016-04E, 고도: 106m

현재 날씨관측

예보는 30분 전, 17:00시(UTC)에 발표되었습니다.
무풍
온도 16°C
습도 72%
기압 1018 hPa
시정 10km 이상
1500m 미만 상공 구름 및 적란운 없음

METAR: LDZA 171700Z 00000KT CAVOK 16/11 Q1018 NOSIG

시각: 19:30 (17:30 UTC)

예보

예보는 6 시간 5분 전, 11:25시(UTC)에 발표되었습니다.
예보 대상 시간: 17일 12시부터 18일 12시까지 (UTC)
여러 방향의 바람 2kt
시정 10km 이상
1500m 미만 상공 구름 및 적란운 없음
일시적
17일 22시부터 18일 04시까지 (UTC)
시정: 4000m
박무
전환 중
18일 02시부터 18일 04시까지 (UTC)
시정: 1000m
박무
일시적
18일 04시부터 18일 08시까지 (UTC)
시정: 0200m
고도 200ft 상공
안개
전환 중
18일 08시부터 18일 10시까지 (UTC)
시정 10km 이상
1500m 미만 상공 구름 및 적란운 없음

TAF: LDZA 171125Z 1712/1812 VRB02KT CAVOK TX19/1713Z TN09/1804Z TEMPO 1722/1804 4000 BR BECMG 1802/1804 1000 BR TEMPO 1804/1808 0200 FG VV002 BECMG 1808/1810 CAVOK

4,000개 이상의 공항 관측 자료 및 예보 (METAR 및 TAF 보고).

지도상에서 검색 가능한 기상관측소가 노란 점과 빨간 점으로 표시되어 있습니다.

기상관측소 명을 보려면 표시 위로 마우스를 이동하세요.

날씨 관측과 예보를 보려면 클릭하세요.

지도 변경 : 확대하려면 엑스 표시가 있는 녹색 버튼, 축소하려면 빼기 표시가 있는 녹색 버튼, 다음 페이지의 지도를 보려면 녹색 화살표를 클릭하세요.


METAR-TAF: